sensor_id;sensor_type;location;lat;lon;timestamp;P1;durP1;ratioP1;P2;durP2;ratioP2
6979;SDS011;3530;52.832;10.680;2022-12-11T00:00:37;11.57;;;6.78;;
6979;SDS011;3530;52.832;10.680;2022-12-11T00:03:23;13.70;;;8.57;;
6979;SDS011;3530;52.832;10.680;2022-12-11T00:06:10;10.48;;;8.00;;
6979;SDS011;3530;52.832;10.680;2022-12-11T00:08:57;13.23;;;7.97;;
6979;SDS011;3530;52.832;10.680;2022-12-11T00:11:43;13.40;;;8.20;;
6979;SDS011;3530;52.832;10.680;2022-12-11T00:14:29;11.48;;;7.70;;
6979;SDS011;3530;52.832;10.680;2022-12-11T00:17:16;17.08;;;7.22;;
6979;SDS011;3530;52.832;10.680;2022-12-11T00:20:02;13.32;;;8.02;;
6979;SDS011;3530;52.832;10.680;2022-12-11T00:22:48;14.82;;;7.95;;
6979;SDS011;3530;52.832;10.680;2022-12-11T00:25:34;11.73;;;7.13;;
6979;SDS011;3530;52.832;10.680;2022-12-11T00:28:20;8.57;;;6.30;;
6979;SDS011;3530;52.832;10.680;2022-12-11T00:31:06;10.27;;;6.47;;
6979;SDS011;3530;52.832;10.680;2022-12-11T00:33:53;9.18;;;6.97;;
6979;SDS011;3530;52.832;10.680;2022-12-11T00:36:38;15.65;;;7.78;;
6979;SDS011;3530;52.832;10.680;2022-12-11T00:39:24;13.18;;;7.18;;
6979;SDS011;3530;52.832;10.680;2022-12-11T00:42:10;10.35;;;6.95;;
6979;SDS011;3530;52.832;10.680;2022-12-11T00:44:55;11.00;;;6.65;;
6979;SDS011;3530;52.832;10.680;2022-12-11T00:47:42;10.70;;;7.20;;
6979;SDS011;3530;52.832;10.680;2022-12-11T00:50:27;10.32;;;5.78;;
6979;SDS011;3530;52.832;10.680;2022-12-11T00:53:13;12.55;;;7.43;;
6979;SDS011;3530;52.832;10.680;2022-12-11T00:55:59;8.90;;;6.15;;
6979;SDS011;3530;52.832;10.680;2022-12-11T00:58:45;8.25;;;5.93;;
6979;SDS011;3530;52.832;10.680;2022-12-11T01:01:31;10.75;;;7.25;;
6979;SDS011;3530;52.832;10.680;2022-12-11T01:04:17;10.75;;;6.72;;
6979;SDS011;3530;52.832;10.680;2022-12-11T01:07:03;10.68;;;7.20;;
6979;SDS011;3530;52.832;10.680;2022-12-11T01:09:48;13.10;;;7.53;;
6979;SDS011;3530;52.832;10.680;2022-12-11T01:12:57;10.55;;;6.05;;
6979;SDS011;3530;52.832;10.680;2022-12-11T01:15:47;6.35;;;5.18;;
6979;SDS011;3530;52.832;10.680;2022-12-11T01:18:33;9.52;;;6.43;;
6979;SDS011;3530;52.832;10.680;2022-12-11T01:21:19;9.23;;;5.75;;
6979;SDS011;3530;52.832;10.680;2022-12-11T01:24:05;6.75;;;4.70;;
6979;SDS011;3530;52.832;10.680;2022-12-11T01:26:50;7.93;;;5.43;;
6979;SDS011;3530;52.832;10.680;2022-12-11T01:29:36;6.05;;;5.10;;
6979;SDS011;3530;52.832;10.680;2022-12-11T01:32:22;7.38;;;5.55;;
6979;SDS011;3530;52.832;10.680;2022-12-11T01:35:07;7.15;;;5.07;;
6979;SDS011;3530;52.832;10.680;2022-12-11T01:37:53;10.55;;;6.70;;
6979;SDS011;3530;52.832;10.680;2022-12-11T01:40:44;6.82;;;5.70;;
6979;SDS011;3530;52.832;10.680;2022-12-11T01:43:33;7.45;;;5.53;;
6979;SDS011;3530;52.832;10.680;2022-12-11T01:46:19;6.75;;;5.53;;
6979;SDS011;3530;52.832;10.680;2022-12-11T01:49:06;8.43;;;5.43;;
6979;SDS011;3530;52.832;10.680;2022-12-11T01:51:57;5.40;;;4.90;;
6979;SDS011;3530;52.832;10.680;2022-12-11T01:54:46;7.30;;;5.18;;
6979;SDS011;3530;52.832;10.680;2022-12-11T01:57:32;5.43;;;4.65;;
6979;SDS011;3530;52.832;10.680;2022-12-11T02:00:18;9.90;;;7.18;;
6979;SDS011;3530;52.832;10.680;2022-12-11T02:03:05;6.07;;;4.90;;
6979;SDS011;3530;52.832;10.680;2022-12-11T02:05:50;7.45;;;5.78;;
6979;SDS011;3530;52.832;10.680;2022-12-11T02:08:36;6.03;;;5.22;;
6979;SDS011;3530;52.832;10.680;2022-12-11T02:11:22;6.28;;;5.15;;
6979;SDS011;3530;52.832;10.680;2022-12-11T02:14:27;9.98;;;6.75;;
6979;SDS011;3530;52.832;10.680;2022-12-11T02:20:26;7.72;;;5.45;;
6979;SDS011;3530;52.832;10.680;2022-12-11T02:29:29;6.15;;;4.70;;
6979;SDS011;3530;52.832;10.680;2022-12-11T02:32:24;9.60;;;7.13;;
6979;SDS011;3530;52.832;10.680;2022-12-11T02:35:14;9.23;;;6.45;;
6979;SDS011;3530;52.832;10.680;2022-12-11T02:38:14;8.90;;;5.95;;
6979;SDS011;3530;52.832;10.680;2022-12-11T02:41:06;7.25;;;5.65;;
6979;SDS011;3530;52.832;10.680;2022-12-11T02:43:54;7.20;;;6.47;;
6979;SDS011;3530;52.832;10.680;2022-12-11T02:46:40;10.82;;;6.35;;
6979;SDS011;3530;52.832;10.680;2022-12-11T02:49:27;8.52;;;5.80;;
6979;SDS011;3530;52.832;10.680;2022-12-11T02:52:13;7.03;;;5.93;;
6979;SDS011;3530;52.832;10.680;2022-12-11T02:55:01;8.05;;;5.47;;
6979;SDS011;3530;52.832;10.680;2022-12-11T02:57:49;7.80;;;5.72;;
6979;SDS011;3530;52.832;10.680;2022-12-11T03:00:37;6.40;;;5.72;;
6979;SDS011;3530;52.832;10.680;2022-12-11T03:03:23;9.23;;;6.15;;
6979;SDS011;3530;52.832;10.680;2022-12-11T03:06:09;14.35;;;7.95;;
6979;SDS011;3530;52.832;10.680;2022-12-11T03:08:58;10.55;;;7.93;;
6979;SDS011;3530;52.832;10.680;2022-12-11T03:11:44;11.45;;;6.90;;
6979;SDS011;3530;52.832;10.680;2022-12-11T03:14:29;13.13;;;8.35;;
6979;SDS011;3530;52.832;10.680;2022-12-11T03:20:12;10.10;;;8.25;;
6979;SDS011;3530;52.832;10.680;2022-12-11T03:23:11;10.95;;;6.93;;
6979;SDS011;3530;52.832;10.680;2022-12-11T03:26:12;12.00;;;7.97;;
6979;SDS011;3530;52.832;10.680;2022-12-11T03:29:01;11.40;;;7.65;;
6979;SDS011;3530;52.832;10.680;2022-12-11T03:31:51;9.57;;;6.43;;
6979;SDS011;3530;52.832;10.680;2022-12-11T03:35:15;11.32;;;8.20;;
6979;SDS011;3530;52.832;10.680;2022-12-11T03:37:55;11.80;;;8.23;;
6979;SDS011;3530;52.832;10.680;2022-12-11T03:40:42;10.18;;;7.63;;
6979;SDS011;3530;52.832;10.680;2022-12-11T03:43:30;9.43;;;7.22;;
6979;SDS011;3530;52.832;10.680;2022-12-11T03:46:17;18.05;;;9.55;;
6979;SDS011;3530;52.832;10.680;2022-12-11T03:49:06;13.27;;;8.73;;
6979;SDS011;3530;52.832;10.680;2022-12-11T03:51:55;13.15;;;8.70;;
6979;SDS011;3530;52.832;10.680;2022-12-11T03:54:42;15.93;;;8.32;;
6979;SDS011;3530;52.832;10.680;2022-12-11T03:57:31;13.68;;;8.13;;
6979;SDS011;3530;52.832;10.680;2022-12-11T04:00:19;10.02;;;7.03;;
6979;SDS011;3530;52.832;10.680;2022-12-11T04:03:05;11.45;;;7.93;;
6979;SDS011;3530;52.832;10.680;2022-12-11T04:06:00;10.20;;;7.47;;
6979;SDS011;3530;52.832;10.680;2022-12-11T04:08:46;13.40;;;8.18;;
6979;SDS011;3530;52.832;10.680;2022-12-11T04:11:31;13.68;;;8.38;;
6979;SDS011;3530;52.832;10.680;2022-12-11T04:14:20;15.48;;;8.13;;
6979;SDS011;3530;52.832;10.680;2022-12-11T04:17:24;14.30;;;9.18;;
6979;SDS011;3530;52.832;10.680;2022-12-11T04:20:28;12.80;;;7.78;;
6979;SDS011;3530;52.832;10.680;2022-12-11T04:23:33;13.25;;;7.88;;
6979;SDS011;3530;52.832;10.680;2022-12-11T04:26:37;9.35;;;6.95;;
6979;SDS011;3530;52.832;10.680;2022-12-11T04:29:22;9.75;;;7.20;;
6979;SDS011;3530;52.832;10.680;2022-12-11T04:32:08;12.93;;;7.35;;
6979;SDS011;3530;52.832;10.680;2022-12-11T04:34:54;11.52;;;7.30;;
6979;SDS011;3530;52.832;10.680;2022-12-11T04:37:39;12.80;;;7.80;;
6979;SDS011;3530;52.832;10.680;2022-12-11T04:40:25;10.88;;;7.13;;
6979;SDS011;3530;52.832;10.680;2022-12-11T04:43:11;11.70;;;8.05;;
6979;SDS011;3530;52.832;10.680;2022-12-11T04:46:04;12.10;;;8.00;;
6979;SDS011;3530;52.832;10.680;2022-12-11T04:48:50;12.93;;;9.30;;
6979;SDS011;3530;52.832;10.680;2022-12-11T04:51:36;8.43;;;6.53;;
6979;SDS011;3530;52.832;10.680;2022-12-11T04:54:22;9.40;;;6.68;;
6979;SDS011;3530;52.832;10.680;2022-12-11T04:57:07;8.23;;;6.07;;
6979;SDS011;3530;52.832;10.680;2022-12-11T04:59:53;9.07;;;6.20;;
6979;SDS011;3530;52.832;10.680;2022-12-11T05:02:39;8.95;;;7.15;;
6979;SDS011;3530;52.832;10.680;2022-12-11T05:05:25;11.02;;;6.85;;
6979;SDS011;3530;52.832;10.680;2022-12-11T05:08:11;11.65;;;6.55;;
6979;SDS011;3530;52.832;10.680;2022-12-11T05:10:57;11.43;;;7.25;;
6979;SDS011;3530;52.832;10.680;2022-12-11T05:13:44;10.25;;;5.70;;
6979;SDS011;3530;52.832;10.680;2022-12-11T05:16:30;8.02;;;5.90;;
6979;SDS011;3530;52.832;10.680;2022-12-11T05:19:15;9.75;;;5.75;;
6979;SDS011;3530;52.832;10.680;2022-12-11T05:22:01;9.88;;;6.43;;
6979;SDS011;3530;52.832;10.680;2022-12-11T05:24:47;7.60;;;5.05;;
6979;SDS011;3530;52.832;10.680;2022-12-11T05:27:32;9.20;;;6.68;;
6979;SDS011;3530;52.832;10.680;2022-12-11T05:30:18;7.47;;;5.90;;
6979;SDS011;3530;52.832;10.680;2022-12-11T05:33:04;9.90;;;6.30;;
6979;SDS011;3530;52.832;10.680;2022-12-11T05:35:49;6.90;;;5.60;;
6979;SDS011;3530;52.832;10.680;2022-12-11T05:38:35;11.25;;;6.22;;
6979;SDS011;3530;52.832;10.680;2022-12-11T05:41:22;8.68;;;6.40;;
6979;SDS011;3530;52.832;10.680;2022-12-11T05:44:11;7.03;;;5.43;;
6979;SDS011;3530;52.832;10.680;2022-12-11T05:46:57;7.75;;;6.05;;
6979;SDS011;3530;52.832;10.680;2022-12-11T05:49:43;11.25;;;6.20;;
6979;SDS011;3530;52.832;10.680;2022-12-11T05:52:30;8.10;;;6.22;;
6979;SDS011;3530;52.832;10.680;2022-12-11T05:55:15;12.70;;;6.72;;
6979;SDS011;3530;52.832;10.680;2022-12-11T05:58:01;7.47;;;5.80;;
6979;SDS011;3530;52.832;10.680;2022-12-11T06:00:47;10.27;;;6.45;;
6979;SDS011;3530;52.832;10.680;2022-12-11T06:03:32;10.90;;;7.05;;
6979;SDS011;3530;52.832;10.680;2022-12-11T06:06:18;11.55;;;6.72;;
6979;SDS011;3530;52.832;10.680;2022-12-11T06:09:04;10.15;;;6.97;;
6979;SDS011;3530;52.832;10.680;2022-12-11T06:11:50;8.65;;;5.80;;
6979;SDS011;3530;52.832;10.680;2022-12-11T06:14:36;8.13;;;5.43;;
6979;SDS011;3530;52.832;10.680;2022-12-11T06:17:21;9.32;;;7.00;;
6979;SDS011;3530;52.832;10.680;2022-12-11T06:20:07;9.70;;;6.07;;
6979;SDS011;3530;52.832;10.680;2022-12-11T06:22:53;7.13;;;5.93;;
6979;SDS011;3530;52.832;10.680;2022-12-11T06:25:39;8.50;;;6.10;;
6979;SDS011;3530;52.832;10.680;2022-12-11T06:28:24;9.20;;;6.15;;
6979;SDS011;3530;52.832;10.680;2022-12-11T06:31:10;11.93;;;7.25;;
6979;SDS011;3530;52.832;10.680;2022-12-11T06:33:56;6.47;;;5.88;;
6979;SDS011;3530;52.832;10.680;2022-12-11T06:36:42;9.65;;;6.00;;
6979;SDS011;3530;52.832;10.680;2022-12-11T06:39:28;10.15;;;6.28;;
6979;SDS011;3530;52.832;10.680;2022-12-11T06:42:13;10.85;;;6.53;;
6979;SDS011;3530;52.832;10.680;2022-12-11T06:45:00;11.35;;;7.03;;
6979;SDS011;3530;52.832;10.680;2022-12-11T06:47:46;11.90;;;7.10;;
6979;SDS011;3530;52.832;10.680;2022-12-11T06:50:32;13.52;;;7.80;;
6979;SDS011;3530;52.832;10.680;2022-12-11T06:53:17;10.82;;;7.25;;
6979;SDS011;3530;52.832;10.680;2022-12-11T06:56:04;10.65;;;6.20;;
6979;SDS011;3530;52.832;10.680;2022-12-11T06:58:51;10.38;;;6.72;;
6979;SDS011;3530;52.832;10.680;2022-12-11T07:01:37;13.00;;;7.90;;
6979;SDS011;3530;52.832;10.680;2022-12-11T07:04:22;10.98;;;7.88;;
6979;SDS011;3530;52.832;10.680;2022-12-11T07:07:11;21.98;;;12.68;;
6979;SDS011;3530;52.832;10.680;2022-12-11T07:09:57;11.70;;;9.02;;
6979;SDS011;3530;52.832;10.680;2022-12-11T07:12:43;8.90;;;6.43;;
6979;SDS011;3530;52.832;10.680;2022-12-11T07:15:28;10.70;;;6.03;;
6979;SDS011;3530;52.832;10.680;2022-12-11T07:18:14;12.90;;;6.68;;
6979;SDS011;3530;52.832;10.680;2022-12-11T07:20:59;12.05;;;6.75;;
6979;SDS011;3530;52.832;10.680;2022-12-11T07:23:45;11.68;;;6.28;;
6979;SDS011;3530;52.832;10.680;2022-12-11T07:26:32;12.88;;;6.45;;
6979;SDS011;3530;52.832;10.680;2022-12-11T07:29:17;12.20;;;7.50;;
6979;SDS011;3530;52.832;10.680;2022-12-11T07:32:03;12.77;;;7.75;;
6979;SDS011;3530;52.832;10.680;2022-12-11T07:34:49;17.23;;;10.05;;
6979;SDS011;3530;52.832;10.680;2022-12-11T07:37:35;15.30;;;8.95;;
6979;SDS011;3530;52.832;10.680;2022-12-11T07:40:22;14.65;;;9.38;;
6979;SDS011;3530;52.832;10.680;2022-12-11T07:43:08;12.30;;;6.68;;
6979;SDS011;3530;52.832;10.680;2022-12-11T07:45:53;11.98;;;6.82;;
6979;SDS011;3530;52.832;10.680;2022-12-11T07:48:39;11.93;;;7.15;;
6979;SDS011;3530;52.832;10.680;2022-12-11T07:51:29;6.90;;;5.72;;
6979;SDS011;3530;52.832;10.680;2022-12-11T07:54:16;14.93;;;8.00;;
6979;SDS011;3530;52.832;10.680;2022-12-11T07:57:01;13.25;;;7.93;;
6979;SDS011;3530;52.832;10.680;2022-12-11T07:59:47;12.35;;;8.48;;
6979;SDS011;3530;52.832;10.680;2022-12-11T08:02:33;12.35;;;7.20;;
6979;SDS011;3530;52.832;10.680;2022-12-11T08:05:18;7.72;;;6.85;;
6979;SDS011;3530;52.832;10.680;2022-12-11T08:08:04;10.40;;;6.25;;
6979;SDS011;3530;52.832;10.680;2022-12-11T08:10:50;12.55;;;7.05;;
6979;SDS011;3530;52.832;10.680;2022-12-11T08:13:35;8.68;;;6.38;;
6979;SDS011;3530;52.832;10.680;2022-12-11T08:16:21;12.88;;;9.07;;
6979;SDS011;3530;52.832;10.680;2022-12-11T08:19:07;9.70;;;7.20;;
6979;SDS011;3530;52.832;10.680;2022-12-11T08:21:53;14.20;;;8.00;;
6979;SDS011;3530;52.832;10.680;2022-12-11T08:24:39;16.92;;;9.25;;
6979;SDS011;3530;52.832;10.680;2022-12-11T08:27:24;13.40;;;9.00;;
6979;SDS011;3530;52.832;10.680;2022-12-11T08:30:11;13.57;;;9.15;;
6979;SDS011;3530;52.832;10.680;2022-12-11T08:32:57;16.33;;;9.88;;
6979;SDS011;3530;52.832;10.680;2022-12-11T08:35:44;8.52;;;6.95;;
6979;SDS011;3530;52.832;10.680;2022-12-11T08:38:30;12.30;;;8.32;;
6979;SDS011;3530;52.832;10.680;2022-12-11T08:41:17;10.27;;;6.85;;
6979;SDS011;3530;52.832;10.680;2022-12-11T08:44:04;14.25;;;8.48;;
6979;SDS011;3530;52.832;10.680;2022-12-11T08:46:50;15.98;;;8.75;;
6979;SDS011;3530;52.832;10.680;2022-12-11T08:49:35;11.63;;;8.30;;
6979;SDS011;3530;52.832;10.680;2022-12-11T08:52:21;14.55;;;11.15;;
6979;SDS011;3530;52.832;10.680;2022-12-11T08:55:07;13.50;;;9.05;;
6979;SDS011;3530;52.832;10.680;2022-12-11T08:57:53;13.10;;;8.13;;
6979;SDS011;3530;52.832;10.680;2022-12-11T09:00:38;10.07;;;7.43;;
6979;SDS011;3530;52.832;10.680;2022-12-11T09:03:24;12.48;;;7.45;;
6979;SDS011;3530;52.832;10.680;2022-12-11T09:06:11;12.02;;;7.35;;
6979;SDS011;3530;52.832;10.680;2022-12-11T09:08:58;12.95;;;8.20;;
6979;SDS011;3530;52.832;10.680;2022-12-11T09:11:45;12.50;;;7.47;;
6979;SDS011;3530;52.832;10.680;2022-12-11T09:14:31;13.45;;;8.30;;
6979;SDS011;3530;52.832;10.680;2022-12-11T09:17:16;13.57;;;8.02;;
6979;SDS011;3530;52.832;10.680;2022-12-11T09:20:02;13.68;;;8.75;;
6979;SDS011;3530;52.832;10.680;2022-12-11T09:22:48;12.75;;;7.95;;
6979;SDS011;3530;52.832;10.680;2022-12-11T09:25:38;9.13;;;7.38;;
6979;SDS011;3530;52.832;10.680;2022-12-11T09:28:24;12.90;;;8.20;;
6979;SDS011;3530;52.832;10.680;2022-12-11T09:31:11;11.65;;;7.45;;
6979;SDS011;3530;52.832;10.680;2022-12-11T09:34:02;11.55;;;7.60;;
6979;SDS011;3530;52.832;10.680;2022-12-11T09:36:49;11.32;;;7.43;;
6979;SDS011;3530;52.832;10.680;2022-12-11T09:39:35;13.93;;;8.82;;
6979;SDS011;3530;52.832;10.680;2022-12-11T09:42:25;13.70;;;8.30;;
6979;SDS011;3530;52.832;10.680;2022-12-11T09:45:17;11.02;;;6.93;;
6979;SDS011;3530;52.832;10.680;2022-12-11T09:48:03;15.13;;;8.55;;
6979;SDS011;3530;52.832;10.680;2022-12-11T09:50:49;14.90;;;7.97;;
6979;SDS011;3530;52.832;10.680;2022-12-11T09:53:37;9.70;;;6.30;;
6979;SDS011;3530;52.832;10.680;2022-12-11T09:59:17;12.77;;;8.25;;
6979;SDS011;3530;52.832;10.680;2022-12-11T10:02:28;10.70;;;7.38;;
6979;SDS011;3530;52.832;10.680;2022-12-11T10:08:13;12.27;;;6.97;;
6979;SDS011;3530;52.832;10.680;2022-12-11T10:14:10;11.20;;;7.78;;
6979;SDS011;3530;52.832;10.680;2022-12-11T10:17:06;10.88;;;7.97;;
6979;SDS011;3530;52.832;10.680;2022-12-11T10:19:56;11.88;;;8.25;;
6979;SDS011;3530;52.832;10.680;2022-12-11T10:22:43;11.23;;;6.97;;
6979;SDS011;3530;52.832;10.680;2022-12-11T10:25:30;9.95;;;7.32;;
6979;SDS011;3530;52.832;10.680;2022-12-11T10:28:18;10.70;;;7.00;;
6979;SDS011;3530;52.832;10.680;2022-12-11T10:31:17;15.80;;;9.18;;
6979;SDS011;3530;52.832;10.680;2022-12-11T10:34:19;10.43;;;6.72;;
6979;SDS011;3530;52.832;10.680;2022-12-11T10:37:11;9.60;;;6.53;;
6979;SDS011;3530;52.832;10.680;2022-12-11T10:39:57;10.98;;;7.60;;
6979;SDS011;3530;52.832;10.680;2022-12-11T10:42:50;11.73;;;6.43;;
6979;SDS011;3530;52.832;10.680;2022-12-11T10:45:37;12.05;;;8.32;;
6979;SDS011;3530;52.832;10.680;2022-12-11T10:48:23;12.38;;;7.72;;
6979;SDS011;3530;52.832;10.680;2022-12-11T10:51:09;9.77;;;7.78;;
6979;SDS011;3530;52.832;10.680;2022-12-11T10:53:56;11.20;;;8.30;;
6979;SDS011;3530;52.832;10.680;2022-12-11T10:56:46;10.55;;;7.07;;
6979;SDS011;3530;52.832;10.680;2022-12-11T10:59:34;11.32;;;7.65;;
6979;SDS011;3530;52.832;10.680;2022-12-11T11:02:24;12.55;;;7.93;;
6979;SDS011;3530;52.832;10.680;2022-12-11T11:05:15;12.63;;;8.32;;
6979;SDS011;3530;52.832;10.680;2022-12-11T11:08:14;13.55;;;8.02;;
6979;SDS011;3530;52.832;10.680;2022-12-11T11:11:00;14.43;;;9.30;;
6979;SDS011;3530;52.832;10.680;2022-12-11T11:13:46;12.05;;;8.15;;
6979;SDS011;3530;52.832;10.680;2022-12-11T11:16:31;16.83;;;8.45;;
6979;SDS011;3530;52.832;10.680;2022-12-11T11:19:22;10.98;;;7.43;;
6979;SDS011;3530;52.832;10.680;2022-12-11T11:22:16;12.50;;;8.07;;
6979;SDS011;3530;52.832;10.680;2022-12-11T11:25:02;12.85;;;7.57;;
6979;SDS011;3530;52.832;10.680;2022-12-11T11:30:41;13.52;;;8.32;;
6979;SDS011;3530;52.832;10.680;2022-12-11T11:33:50;10.73;;;7.28;;
6979;SDS011;3530;52.832;10.680;2022-12-11T11:36:41;11.50;;;7.30;;
6979;SDS011;3530;52.832;10.680;2022-12-11T11:39:30;9.65;;;7.38;;
6979;SDS011;3530;52.832;10.680;2022-12-11T11:42:23;11.63;;;8.50;;
6979;SDS011;3530;52.832;10.680;2022-12-11T11:45:25;14.13;;;8.55;;
6979;SDS011;3530;52.832;10.680;2022-12-11T11:51:35;11.23;;;7.50;;
6979;SDS011;3530;52.832;10.680;2022-12-11T11:54:29;9.25;;;7.20;;
6979;SDS011;3530;52.832;10.680;2022-12-11T11:57:22;12.63;;;7.68;;
6979;SDS011;3530;52.832;10.680;2022-12-11T12:03:09;11.05;;;7.22;;
6979;SDS011;3530;52.832;10.680;2022-12-11T12:11:45;13.05;;;8.35;;
6979;SDS011;3530;52.832;10.680;2022-12-11T12:17:44;12.52;;;7.47;;
6979;SDS011;3530;52.832;10.680;2022-12-11T12:30:09;10.55;;;7.03;;
6979;SDS011;3530;52.832;10.680;2022-12-11T12:35:57;12.15;;;7.53;;
6979;SDS011;3530;52.832;10.680;2022-12-11T12:38:53;10.80;;;7.07;;
6979;SDS011;3530;52.832;10.680;2022-12-11T12:41:56;11.98;;;7.93;;
6979;SDS011;3530;52.832;10.680;2022-12-11T12:47:48;10.38;;;7.72;;
6979;SDS011;3530;52.832;10.680;2022-12-11T12:50:36;13.45;;;8.05;;
6979;SDS011;3530;52.832;10.680;2022-12-11T12:53:24;13.65;;;7.38;;
6979;SDS011;3530;52.832;10.680;2022-12-11T12:56:12;12.32;;;7.25;;
6979;SDS011;3530;52.832;10.680;2022-12-11T12:58:58;15.23;;;7.85;;
6979;SDS011;3530;52.832;10.680;2022-12-11T13:01:45;12.80;;;6.97;;
6979;SDS011;3530;52.832;10.680;2022-12-11T13:04:37;10.77;;;7.20;;
6979;SDS011;3530;52.832;10.680;2022-12-11T13:07:28;18.33;;;9.18;;
6979;SDS011;3530;52.832;10.680;2022-12-11T13:10:22;12.52;;;8.63;;
6979;SDS011;3530;52.832;10.680;2022-12-11T13:13:29;12.73;;;7.93;;
6979;SDS011;3530;52.832;10.680;2022-12-11T13:19:01;11.95;;;8.52;;
6979;SDS011;3530;52.832;10.680;2022-12-11T13:21:57;10.13;;;7.25;;
6979;SDS011;3530;52.832;10.680;2022-12-11T13:27:37;12.02;;;7.68;;
6979;SDS011;3530;52.832;10.680;2022-12-11T13:30:27;10.25;;;6.97;;
6979;SDS011;3530;52.832;10.680;2022-12-11T13:33:14;11.40;;;7.95;;
6979;SDS011;3530;52.832;10.680;2022-12-11T13:38:59;34.65;;;18.55;;
6979;SDS011;3530;52.832;10.680;2022-12-11T13:41:50;12.02;;;9.05;;
6979;SDS011;3530;52.832;10.680;2022-12-11T13:44:38;26.02;;;15.02;;
6979;SDS011;3530;52.832;10.680;2022-12-11T13:47:25;12.52;;;8.27;;
6979;SDS011;3530;52.832;10.680;2022-12-11T13:50:15;23.60;;;14.60;;
6979;SDS011;3530;52.832;10.680;2022-12-11T13:53:05;16.90;;;11.02;;
6979;SDS011;3530;52.832;10.680;2022-12-11T13:55:57;16.40;;;9.65;;
6979;SDS011;3530;52.832;10.680;2022-12-11T13:58:44;14.32;;;8.75;;
6979;SDS011;3530;52.832;10.680;2022-12-11T14:01:31;13.70;;;8.15;;
6979;SDS011;3530;52.832;10.680;2022-12-11T14:04:18;17.63;;;8.77;;
6979;SDS011;3530;52.832;10.680;2022-12-11T14:07:06;12.80;;;8.05;;
6979;SDS011;3530;52.832;10.680;2022-12-11T14:09:54;16.90;;;9.35;;
6979;SDS011;3530;52.832;10.680;2022-12-11T14:12:50;15.65;;;8.45;;
6979;SDS011;3530;52.832;10.680;2022-12-11T14:15:47;11.18;;;8.23;;
6979;SDS011;3530;52.832;10.680;2022-12-11T14:18:34;11.93;;;8.60;;
6979;SDS011;3530;52.832;10.680;2022-12-11T14:21:21;12.20;;;8.05;;
6979;SDS011;3530;52.832;10.680;2022-12-11T14:24:12;17.63;;;9.05;;
6979;SDS011;3530;52.832;10.680;2022-12-11T14:26:58;13.85;;;8.80;;
6979;SDS011;3530;52.832;10.680;2022-12-11T14:29:44;11.13;;;7.38;;
6979;SDS011;3530;52.832;10.680;2022-12-11T14:32:34;13.05;;;8.25;;
6979;SDS011;3530;52.832;10.680;2022-12-11T14:35:28;11.50;;;7.35;;
6979;SDS011;3530;52.832;10.680;2022-12-11T14:38:25;16.50;;;7.75;;
6979;SDS011;3530;52.832;10.680;2022-12-11T14:41:18;11.73;;;7.80;;
6979;SDS011;3530;52.832;10.680;2022-12-11T14:44:10;14.43;;;10.20;;
6979;SDS011;3530;52.832;10.680;2022-12-11T14:46:59;16.77;;;9.52;;
6979;SDS011;3530;52.832;10.680;2022-12-11T14:52:38;16.10;;;9.82;;
6979;SDS011;3530;52.832;10.680;2022-12-11T14:55:27;13.80;;;9.07;;
6979;SDS011;3530;52.832;10.680;2022-12-11T14:58:22;13.77;;;9.57;;
6979;SDS011;3530;52.832;10.680;2022-12-11T15:01:20;32.80;;;14.75;;
6979;SDS011;3530;52.832;10.680;2022-12-11T15:04:18;15.50;;;10.27;;
6979;SDS011;3530;52.832;10.680;2022-12-11T15:07:17;15.48;;;9.52;;
6979;SDS011;3530;52.832;10.680;2022-12-11T15:10:04;12.63;;;8.85;;
6979;SDS011;3530;52.832;10.680;2022-12-11T15:12:50;21.08;;;12.82;;
6979;SDS011;3530;52.832;10.680;2022-12-11T15:15:37;16.40;;;11.32;;
6979;SDS011;3530;52.832;10.680;2022-12-11T15:18:29;27.95;;;16.55;;
6979;SDS011;3530;52.832;10.680;2022-12-11T15:21:15;20.23;;;11.20;;
6979;SDS011;3530;52.832;10.680;2022-12-11T15:24:02;26.02;;;15.00;;
6979;SDS011;3530;52.832;10.680;2022-12-11T15:26:49;23.83;;;14.73;;
6979;SDS011;3530;52.832;10.680;2022-12-11T15:29:36;20.00;;;11.20;;
6979;SDS011;3530;52.832;10.680;2022-12-11T15:32:23;29.08;;;15.70;;
6979;SDS011;3530;52.832;10.680;2022-12-11T15:35:20;20.10;;;13.38;;
6979;SDS011;3530;52.832;10.680;2022-12-11T15:38:24;13.40;;;10.25;;
6979;SDS011;3530;52.832;10.680;2022-12-11T15:41:14;18.92;;;10.88;;
6979;SDS011;3530;52.832;10.680;2022-12-11T15:44:02;16.77;;;10.93;;
6979;SDS011;3530;52.832;10.680;2022-12-11T15:46:48;26.10;;;14.57;;
6979;SDS011;3530;52.832;10.680;2022-12-11T15:49:34;32.78;;;16.60;;
6979;SDS011;3530;52.832;10.680;2022-12-11T15:52:19;23.63;;;13.45;;
6979;SDS011;3530;52.832;10.680;2022-12-11T15:55:05;19.75;;;9.23;;
6979;SDS011;3530;52.832;10.680;2022-12-11T15:57:54;26.25;;;15.15;;
6979;SDS011;3530;52.832;10.680;2022-12-11T16:00:42;51.13;;;26.95;;
6979;SDS011;3530;52.832;10.680;2022-12-11T16:03:28;23.33;;;13.88;;
6979;SDS011;3530;52.832;10.680;2022-12-11T16:06:14;19.83;;;13.27;;
6979;SDS011;3530;52.832;10.680;2022-12-11T16:09:00;19.95;;;11.27;;
6979;SDS011;3530;52.832;10.680;2022-12-11T16:11:47;19.23;;;11.70;;
6979;SDS011;3530;52.832;10.680;2022-12-11T16:14:33;18.48;;;10.88;;
6979;SDS011;3530;52.832;10.680;2022-12-11T16:17:22;14.18;;;9.35;;
6979;SDS011;3530;52.832;10.680;2022-12-11T16:20:08;17.10;;;10.10;;
6979;SDS011;3530;52.832;10.680;2022-12-11T16:22:54;14.55;;;10.65;;
6979;SDS011;3530;52.832;10.680;2022-12-11T16:25:40;21.55;;;12.57;;
6979;SDS011;3530;52.832;10.680;2022-12-11T16:28:26;18.80;;;12.23;;
6979;SDS011;3530;52.832;10.680;2022-12-11T16:31:12;18.85;;;12.35;;
6979;SDS011;3530;52.832;10.680;2022-12-11T16:33:59;17.08;;;9.98;;
6979;SDS011;3530;52.832;10.680;2022-12-11T16:36:45;16.65;;;10.18;;
6979;SDS011;3530;52.832;10.680;2022-12-11T16:39:30;14.80;;;9.20;;
6979;SDS011;3530;52.832;10.680;2022-12-11T16:42:16;17.42;;;9.30;;
6979;SDS011;3530;52.832;10.680;2022-12-11T16:45:06;13.55;;;9.18;;
6979;SDS011;3530;52.832;10.680;2022-12-11T16:47:54;18.48;;;11.57;;
6979;SDS011;3530;52.832;10.680;2022-12-11T16:50:40;19.70;;;10.15;;
6979;SDS011;3530;52.832;10.680;2022-12-11T16:53:25;12.90;;;9.55;;
6979;SDS011;3530;52.832;10.680;2022-12-11T16:56:11;16.92;;;10.27;;
6979;SDS011;3530;52.832;10.680;2022-12-11T16:58:57;16.45;;;10.63;;
6979;SDS011;3530;52.832;10.680;2022-12-11T17:01:45;18.02;;;10.05;;
6979;SDS011;3530;52.832;10.680;2022-12-11T17:04:30;21.60;;;14.50;;
6979;SDS011;3530;52.832;10.680;2022-12-11T17:07:17;18.85;;;10.88;;
6979;SDS011;3530;52.832;10.680;2022-12-11T17:10:03;18.17;;;11.60;;
6979;SDS011;3530;52.832;10.680;2022-12-11T17:12:49;21.57;;;14.27;;
6979;SDS011;3530;52.832;10.680;2022-12-11T17:15:38;21.27;;;14.50;;
6979;SDS011;3530;52.832;10.680;2022-12-11T17:18:25;29.92;;;17.05;;
6979;SDS011;3530;52.832;10.680;2022-12-11T17:21:12;29.50;;;17.40;;
6979;SDS011;3530;52.832;10.680;2022-12-11T17:24:00;21.42;;;12.07;;
6979;SDS011;3530;52.832;10.680;2022-12-11T17:26:46;20.60;;;11.02;;
6979;SDS011;3530;52.832;10.680;2022-12-11T17:29:31;18.00;;;10.65;;
6979;SDS011;3530;52.832;10.680;2022-12-11T17:32:17;17.70;;;10.60;;
6979;SDS011;3530;52.832;10.680;2022-12-11T17:35:03;17.48;;;10.68;;
6979;SDS011;3530;52.832;10.680;2022-12-11T17:37:49;21.90;;;13.07;;
6979;SDS011;3530;52.832;10.680;2022-12-11T17:40:38;29.08;;;19.08;;
6979;SDS011;3530;52.832;10.680;2022-12-11T17:43:25;34.47;;;20.77;;
6979;SDS011;3530;52.832;10.680;2022-12-11T17:46:11;26.27;;;15.68;;
6979;SDS011;3530;52.832;10.680;2022-12-11T17:48:57;23.35;;;14.63;;
6979;SDS011;3530;52.832;10.680;2022-12-11T17:51:44;19.10;;;11.77;;
6979;SDS011;3530;52.832;10.680;2022-12-11T17:54:30;20.65;;;13.05;;
6979;SDS011;3530;52.832;10.680;2022-12-11T17:57:15;16.48;;;12.27;;
6979;SDS011;3530;52.832;10.680;2022-12-11T18:00:01;20.92;;;12.32;;